Time;durP1;ratioP1;P1;durP2;ratioP2;P2;SDS_P1;SDS_P2;PMS_P1;PMS_P2;Temp;Humidity;BMP_temperature;BMP_pressure;BME280_temperature;BME280_humidity;BME280_pressure;Samples;Min_cycle;Max_cycle;Signal;HPM_P1;HPM_P2
2021/05/20 00:00:09;;;;;;;8.02;7.18;;;9.00;99.90;;;;;;4726076;30;20060;-84
2021/05/20 00:02:37;;;;;;;7.60;6.50;;;9.00;99.90;;;;;;4713218;30;20060;-84
2021/05/20 00:05:06;;;;;;;8.25;6.60;;;9.00;99.90;;;;;;4723655;30;20051;-85
2021/05/20 00:07:32;;;;;;;6.40;5.78;;;9.00;99.90;;;;;;4705271;30;20051;-85
2021/05/20 00:09:59;;;;;;;7.13;5.93;;;8.90;99.90;;;;;;4730501;30;20048;-84
2021/05/20 00:12:25;;;;;;;9.98;7.70;;;8.90;99.90;;;;;;4740867;30;20044;-84
2021/05/20 00:14:52;;;;;;;7.47;6.70;;;8.90;99.90;;;;;;4710089;30;20048;-84
2021/05/20 00:17:18;;;;;;;7.47;6.53;;;8.90;99.90;;;;;;4709336;30;20056;-85
2021/05/20 00:19:45;;;;;;;9.32;7.10;;;8.90;99.90;;;;;;4724721;30;20085;-84
2021/05/20 00:22:11;;;;;;;9.52;8.30;;;8.90;99.90;;;;;;4731065;30;20048;-84
2021/05/20 00:24:38;;;;;;;8.18;7.32;;;8.90;99.90;;;;;;4731490;30;20413;-85
2021/05/20 00:27:04;;;;;;;9.20;8.15;;;8.90;99.90;;;;;;4723720;30;20063;-85
2021/05/20 00:29:31;;;;;;;10.40;7.85;;;8.90;99.90;;;;;;4731734;30;20043;-85
2021/05/20 00:32:02;;;;;;;12.40;10.57;;;8.90;99.90;;;;;;4707156;30;20040;-85
2021/05/20 00:34:29;;;;;;;12.55;9.30;;;9.00;99.90;;;;;;4707797;30;20048;-84
2021/05/20 00:36:55;;;;;;;11.10;9.25;;;9.00;99.90;;;;;;4739944;30;20059;-85
2021/05/20 00:39:22;;;;;;;8.82;7.75;;;9.00;99.90;;;;;;4717269;30;20044;-85
2021/05/20 00:41:48;;;;;;;10.50;8.30;;;9.00;99.90;;;;;;4721682;30;20044;-84
2021/05/20 00:44:15;;;;;;;11.10;9.65;;;8.90;99.90;;;;;;4691703;30;20044;-84
2021/05/20 00:46:41;;;;;;;13.02;9.73;;;8.90;99.90;;;;;;4696433;30;20060;-85
2021/05/20 00:49:10;;;;;;;11.02;9.70;;;8.90;99.90;;;;;;4707242;30;20048;-84
2021/05/20 00:51:40;;;;;;;13.10;10.80;;;8.90;99.90;;;;;;4716272;30;20493;-84
2021/05/20 00:54:08;;;;;;;17.15;13.40;;;8.90;99.90;;;;;;4723211;30;20044;-84
2021/05/20 00:56:39;;;;;;;16.85;13.57;;;8.90;99.90;;;;;;4730760;30;20492;-84
2021/05/20 00:59:06;;;;;;;15.88;13.07;;;8.90;99.90;;;;;;4713391;30;20051;-84
2021/05/20 01:01:33;;;;;;;16.92;15.00;;;8.80;99.90;;;;;;4720725;30;20267;-84
2021/05/20 01:04:00;;;;;;;13.57;11.40;;;8.80;99.90;;;;;;4711911;30;20059;-84
2021/05/20 01:06:27;;;;;;;16.85;13.85;;;8.80;99.90;;;;;;4715641;30;20055;-84
2021/05/20 01:08:57;;;;;;;18.73;16.50;;;8.80;99.90;;;;;;4731028;30;20056;-84
2021/05/20 01:11:24;;;;;;;17.92;15.13;;;8.80;99.90;;;;;;4729677;30;20059;-85
2021/05/20 01:13:50;;;;;;;18.35;14.95;;;8.70;99.90;;;;;;4715396;30;20102;-84
2021/05/20 01:16:17;;;;;;;22.10;18.42;;;8.70;99.90;;;;;;4713633;30;20416;-84
2021/05/20 01:18:43;;;;;;;18.13;16.02;;;8.70;99.90;;;;;;4706860;30;20052;-85
2021/05/20 01:21:10;;;;;;;17.88;15.55;;;8.70;99.90;;;;;;4729104;30;20060;-85
2021/05/20 01:23:37;;;;;;;19.50;17.13;;;8.70;99.90;;;;;;4729374;30;20044;-85
2021/05/20 01:26:04;;;;;;;27.23;20.63;;;8.60;99.90;;;;;;4745756;30;20075;-85
2021/05/20 01:28:33;;;;;;;23.73;18.80;;;8.70;99.90;;;;;;4730378;30;20071;-84
2021/05/20 01:31:03;;;;;;;28.20;23.73;;;8.70;99.90;;;;;;4720501;30;20036;-84
2021/05/20 01:33:29;;;;;;;31.10;24.80;;;8.70;99.90;;;;;;4716554;30;20044;-84
2021/05/20 01:35:56;;;;;;;30.10;25.30;;;8.70;99.90;;;;;;4708088;30;20048;-85
2021/05/20 01:41:07;;;;;;;35.42;28.00;;;8.70;99.90;;;;;;4730599;30;20300;-84
2021/05/20 01:43:34;;;;;;;45.58;34.17;;;8.70;99.90;;;;;;4722343;30;20136;-84
2021/05/20 01:46:01;;;;;;;36.08;26.77;;;8.70;99.90;;;;;;4724435;30;20048;-84
2021/05/20 01:48:39;;;;;;;50.22;36.83;;;8.80;99.90;;;;;;4715542;30;20052;-84
2021/05/20 01:51:17;;;;;;;68.95;48.78;;;8.80;99.90;;;;;;4710161;30;20047;-84
2021/05/20 01:53:49;;;;;;;45.40;33.97;;;8.80;99.90;;;;;;4719189;30;20404;-84
2021/05/20 01:56:18;;;;;;;46.13;34.07;;;8.80;99.90;;;;;;4722275;30;20484;-83
2021/05/20 01:58:46;;;;;;;44.22;34.28;;;8.80;99.90;;;;;;4729544;30;20040;-84
2021/05/20 02:01:13;;;;;;;49.58;37.00;;;8.80;99.90;;;;;;4718315;30;20400;-84
2021/05/20 02:03:40;;;;;;;55.67;38.70;;;8.80;99.90;;;;;;4721964;30;20070;-85
2021/05/20 02:06:08;;;;;;;46.28;34.45;;;8.80;99.90;;;;;;4728915;30;20060;-84
2021/05/20 02:08:36;;;;;;;44.63;33.20;;;8.80;99.90;;;;;;4730921;30;20048;-83
2021/05/20 02:11:04;;;;;;;43.90;30.48;;;8.80;99.90;;;;;;4703789;30;20044;-84
2021/05/20 02:13:31;;;;;;;43.78;31.25;;;8.80;99.90;;;;;;4715619;30;20055;-84
2021/05/20 02:15:58;;;;;;;46.38;31.50;;;8.80;99.90;;;;;;4734637;30;20056;-84
2021/05/20 02:18:25;;;;;;;49.80;33.47;;;8.80;99.90;;;;;;4705165;30;20052;-84
2021/05/20 02:20:52;;;;;;;63.20;42.17;;;8.80;99.90;;;;;;4719928;30;20394;-83
2021/05/20 02:23:19;;;;;;;65.60;41.47;;;8.80;99.90;;;;;;4729256;30;20056;-84
2021/05/20 02:25:46;;;;;;;60.78;38.22;;;8.80;99.90;;;;;;4714555;30;20048;-84
2021/05/20 02:28:12;;;;;;;55.63;34.40;;;8.80;99.90;;;;;;4705710;30;20048;-84
2021/05/20 02:30:39;;;;;;;68.20;37.95;;;8.80;99.90;;;;;;4717400;30;20417;-85
2021/05/20 02:33:05;;;;;;;61.90;37.40;;;8.80;99.90;;;;;;4744019;30;20048;-85
2021/05/20 02:35:32;;;;;;;61.03;38.30;;;8.80;99.90;;;;;;4712741;30;20056;-85
2021/05/20 02:37:59;;;;;;;53.53;33.83;;;8.70;99.90;;;;;;4727840;30;20067;-84
2021/05/20 02:40:25;;;;;;;49.03;30.90;;;8.70;99.90;;;;;;4711633;30;20621;-85
2021/05/20 02:42:52;;;;;;;61.45;35.53;;;8.80;99.90;;;;;;4714914;30;20739;-85
2021/05/20 02:45:22;;;;;;;65.78;36.85;;;8.70;99.90;;;;;;4699313;30;20048;-85
2021/05/20 02:47:51;;;;;;;60.90;37.35;;;8.80;99.90;;;;;;4740877;30;20058;-84
2021/05/20 02:50:20;;;;;;;52.83;32.42;;;8.70;99.90;;;;;;4738357;30;20500;-84
2021/05/20 02:52:47;;;;;;;148.98;40.50;;;8.70;99.90;;;;;;4711329;30;20040;-85
2021/05/20 02:55:15;;;;;;;71.75;32.63;;;8.70;99.90;;;;;;4687207;30;20044;-85
2021/05/20 02:57:44;;;;;;;88.97;29.92;;;8.70;99.90;;;;;;4713120;30;20059;-85
2021/05/20 03:00:11;;;;;;;140.65;32.67;;;8.70;99.90;;;;;;4712029;30;20071;-84
2021/05/20 03:02:38;;;;;;;189.63;35.67;;;8.80;99.90;;;;;;4712653;30;20150;-85
2021/05/20 03:05:06;;;;;;;54.47;28.40;;;8.80;99.90;;;;;;4711733;30;20611;-85
2021/05/20 03:07:34;;;;;;;71.10;27.88;;;8.80;99.90;;;;;;4726437;30;20074;-84
2021/05/20 03:10:06;;;;;;;45.67;26.50;;;8.80;99.90;;;;;;4697391;30;20051;-85
2021/05/20 03:12:33;;;;;;;55.42;25.35;;;8.80;99.90;;;;;;4716625;30;20048;-85
2021/05/20 03:15:00;;;;;;;55.15;26.25;;;8.80;99.90;;;;;;4712946;30;20056;-85
2021/05/20 03:17:27;;;;;;;35.15;20.98;;;8.80;99.90;;;;;;4707367;30;20056;-85
2021/05/20 03:19:53;;;;;;;52.65;23.20;;;8.80;99.90;;;;;;4722700;30;20421;-85
2021/05/20 03:22:22;;;;;;;34.53;21.05;;;8.70;99.90;;;;;;4714456;30;20063;-85
2021/05/20 03:24:51;;;;;;;37.72;20.52;;;8.80;99.90;;;;;;4722520;30;20060;-85
2021/05/20 03:27:18;;;;;;;31.70;18.45;;;8.80;99.90;;;;;;4717833;30;20819;-84
2021/05/20 03:29:45;;;;;;;46.10;19.15;;;8.80;99.90;;;;;;4739796;30;20052;-85
2021/05/20 03:32:12;;;;;;;30.65;17.40;;;8.80;99.90;;;;;;4731939;30;20057;-85
2021/05/20 03:34:38;;;;;;;47.05;21.50;;;8.80;99.90;;;;;;4706366;30;20047;-85
2021/05/20 03:37:05;;;;;;;40.72;20.10;;;8.90;99.90;;;;;;4745187;30;20056;-85
2021/05/20 03:39:33;;;;;;;37.97;18.75;;;8.90;99.90;;;;;;4717479;30;20060;-84
2021/05/20 03:42:00;;;;;;;40.42;19.48;;;8.90;99.90;;;;;;4729505;30;20043;-85
2021/05/20 03:44:28;;;;;;;40.25;20.35;;;8.90;99.90;;;;;;4718158;30;20055;-85
2021/05/20 03:46:55;;;;;;;52.97;21.38;;;9.00;99.90;;;;;;4702960;30;20068;-85
2021/05/20 03:49:22;;;;;;;40.45;21.27;;;9.00;99.90;;;;;;4710841;30;20066;-85
2021/05/20 03:51:48;;;;;;;51.03;22.48;;;9.00;99.90;;;;;;4744916;30;20052;-85
2021/05/20 03:54:15;;;;;;;35.60;19.65;;;9.00;99.90;;;;;;4706292;30;20055;-85
2021/05/20 03:56:41;;;;;;;47.65;23.02;;;9.00;99.90;;;;;;4706943;30;20137;-85
2021/05/20 03:59:08;;;;;;;48.35;22.90;;;9.00;99.90;;;;;;4733859;30;20067;-84
2021/05/20 04:01:38;;;;;;;46.08;22.88;;;9.10;99.90;;;;;;4716025;30;20044;-84
2021/05/20 04:04:05;;;;;;;44.22;22.58;;;9.10;99.90;;;;;;4746199;30;20528;-84
2021/05/20 04:06:31;;;;;;;41.25;21.60;;;9.10;99.90;;;;;;4735346;30;20396;-84
2021/05/20 04:08:58;;;;;;;34.08;21.50;;;9.20;99.90;;;;;;4704291;30;20044;-84
2021/05/20 04:11:25;;;;;;;39.42;21.80;;;9.20;99.90;;;;;;4706195;30;20107;-84
2021/05/20 04:13:52;;;;;;;33.42;21.70;;;9.30;99.90;;;;;;4731286;30;20051;-83
2021/05/20 04:16:23;;;;;;;34.78;20.77;;;9.30;99.90;;;;;;4731718;30;20040;-85
2021/05/20 04:18:49;;;;;;;41.05;20.80;;;9.40;99.90;;;;;;4716894;30;20052;-85
2021/05/20 04:21:16;;;;;;;35.80;22.33;;;9.40;99.90;;;;;;4729538;30;20051;-85
2021/05/20 04:23:44;;;;;;;32.60;20.58;;;9.40;99.90;;;;;;4710093;30;20048;-85
2021/05/20 04:26:11;;;;;;;37.95;23.30;;;9.40;99.90;;;;;;4731120;30;20060;-85
2021/05/20 04:28:37;;;;;;;33.05;21.25;;;9.40;99.90;;;;;;4745806;30;20504;-85
2021/05/20 04:31:04;;;;;;;33.83;21.05;;;9.40;99.90;;;;;;4730182;30;20040;-86
2021/05/20 04:33:31;;;;;;;32.38;20.35;;;9.40;99.90;;;;;;4718816;30;20506;-86
2021/05/20 04:35:57;;;;;;;34.38;21.90;;;9.50;99.90;;;;;;4708933;30;20044;-86
2021/05/20 04:38:24;;;;;;;29.77;19.48;;;9.50;99.90;;;;;;4710278;30;20051;-85
2021/05/20 04:40:50;;;;;;;30.40;20.52;;;9.50;99.90;;;;;;4706605;30;20506;-85
2021/05/20 04:43:17;;;;;;;29.45;19.58;;;9.50;99.90;;;;;;4715558;30;20048;-84
2021/05/20 04:45:46;;;;;;;31.40;22.77;;;9.50;99.90;;;;;;4714595;30;20589;-85
2021/05/20 04:48:12;;;;;;;31.30;23.17;;;9.50;99.90;;;;;;4731721;30;20064;-85
2021/05/20 04:50:40;;;;;;;32.13;22.88;;;9.50;99.90;;;;;;4706549;30;20051;-85
2021/05/20 04:53:09;;;;;;;27.50;18.55;;;9.40;99.90;;;;;;4731086;30;20063;-85
2021/05/20 04:55:35;;;;;;;25.33;18.40;;;9.50;99.90;;;;;;4746298;30;20047;-86
2021/05/20 04:58:02;;;;;;;30.75;21.83;;;9.50;99.90;;;;;;4721989;30;20063;-85
2021/05/20 05:00:29;;;;;;;31.45;23.35;;;9.50;99.90;;;;;;4720380;30;20050;-85
2021/05/20 05:02:55;;;;;;;26.17;18.77;;;9.50;99.90;;;;;;4715476;30;20056;-85
2021/05/20 05:05:22;;;;;;;26.70;18.95;;;9.60;99.90;;;;;;4709688;30;20055;-85
2021/05/20 05:07:49;;;;;;;26.27;18.73;;;9.60;99.90;;;;;;4724644;30;20055;-85
2021/05/20 05:10:15;;;;;;;28.65;19.80;;;9.70;99.90;;;;;;4705492;30;20055;-84
2021/05/20 05:12:42;;;;;;;29.30;20.50;;;9.70;99.90;;;;;;4718413;30;20048;-86
2021/05/20 05:15:09;;;;;;;30.67;21.15;;;9.80;99.90;;;;;;4709217;30;20044;-85
2021/05/20 05:17:37;;;;;;;28.85;20.35;;;9.80;99.90;;;;;;4705826;30;20508;-85
2021/05/20 05:20:07;;;;;;;28.60;21.13;;;9.80;99.90;;;;;;4706616;30;20052;-84
2021/05/20 05:22:33;;;;;;;32.38;22.85;;;9.80;99.90;;;;;;4720046;30;20052;-85
2021/05/20 05:25:00;;;;;;;35.38;23.08;;;9.80;99.90;;;;;;4736684;30;20063;-85
2021/05/20 05:27:28;;;;;;;33.65;23.75;;;9.90;99.90;;;;;;4707497;30;20060;-85
2021/05/20 05:29:54;;;;;;;31.23;21.00;;;9.90;99.90;;;;;;4720070;30;20059;-85
2021/05/20 05:32:22;;;;;;;29.20;20.40;;;9.90;99.90;;;;;;4729902;30;20511;-85
2021/05/20 05:34:48;;;;;;;28.50;19.42;;;9.90;99.90;;;;;;4724643;30;20056;-85
2021/05/20 05:37:15;;;;;;;29.50;21.15;;;10.00;99.90;;;;;;4731338;30;20052;-85
2021/05/20 05:39:42;;;;;;;27.48;19.48;;;10.10;99.90;;;;;;4721985;30;20071;-84
2021/05/20 05:42:09;;;;;;;26.55;18.60;;;10.20;99.90;;;;;;4729414;30;20036;-84
2021/05/20 05:44:36;;;;;;;30.83;21.63;;;10.30;99.90;;;;;;4696312;30;20056;-84
2021/05/20 05:47:02;;;;;;;32.22;21.27;;;10.40;99.90;;;;;;4706147;30;20059;-84
2021/05/20 05:49:31;;;;;;;29.30;21.00;;;10.40;99.90;;;;;;4705738;30;20048;-84
2021/05/20 05:52:05;;;;;;;31.80;20.77;;;10.40;99.90;;;;;;4706174;30;20055;-84
2021/05/20 05:54:32;;;;;;;31.98;22.70;;;10.50;99.90;;;;;;4707551;30;20048;-84
2021/05/20 05:56:58;;;;;;;32.42;21.33;;;10.50;99.90;;;;;;4729688;30;20056;-84
2021/05/20 05:59:25;;;;;;;31.65;21.23;;;10.50;99.90;;;;;;4700121;30;20408;-84
2021/05/20 06:01:51;;;;;;;29.50;20.48;;;10.60;99.90;;;;;;4720097;30;20036;-84
2021/05/20 06:04:18;;;;;;;29.08;21.17;;;10.70;99.90;;;;;;4706811;30;20044;-84
2021/05/20 06:06:46;;;;;;;31.73;21.70;;;10.70;99.90;;;;;;4729198;30;20051;-84
2021/05/20 06:09:13;;;;;;;27.50;19.35;;;10.80;99.90;;;;;;4721401;30;20501;-84
2021/05/20 06:11:40;;;;;;;28.05;19.02;;;10.80;99.90;;;;;;4734904;30;20040;-83
2021/05/20 06:14:08;;;;;;;29.95;19.70;;;10.80;99.90;;;;;;4729772;30;20048;-84
2021/05/20 06:16:35;;;;;;;31.75;21.85;;;10.90;99.90;;;;;;4718451;30;20374;-84
2021/05/20 06:19:03;;;;;;;29.98;20.05;;;10.90;99.90;;;;;;4732219;30;20071;-83
2021/05/20 06:21:30;;;;;;;32.58;21.90;;;11.00;99.90;;;;;;4704752;30;20040;-84
2021/05/20 06:23:57;;;;;;;31.73;20.83;;;11.10;99.90;;;;;;4729487;30;20056;-84
2021/05/20 06:26:25;;;;;;;39.00;24.45;;;11.30;99.90;;;;;;4733762;30;20059;-83
2021/05/20 06:28:52;;;;;;;34.08;21.13;;;11.50;99.90;;;;;;4734838;30;20059;-84
2021/05/20 06:31:18;;;;;;;32.45;20.40;;;11.60;99.90;;;;;;4710546;30;20047;-84
2021/05/20 06:33:45;;;;;;;33.50;17.95;;;11.80;99.90;;;;;;4728376;30;20075;-84
2021/05/20 06:36:11;;;;;;;30.15;18.30;;;11.90;99.90;;;;;;4743378;30;20067;-84
2021/05/20 06:38:38;;;;;;;31.55;19.63;;;12.10;99.90;;;;;;4707045;30;20446;-84
2021/05/20 06:41:07;;;;;;;32.58;20.25;;;12.20;99.90;;;;;;4729244;30;20271;-84
2021/05/20 06:43:34;;;;;;;30.15;19.05;;;12.20;99.90;;;;;;4704983;30;20055;-83
2021/05/20 06:46:00;;;;;;;34.67;21.30;;;12.30;99.90;;;;;;4703949;30;20073;-84
2021/05/20 06:48:27;;;;;;;36.85;20.52;;;12.40;99.90;;;;;;4720630;30;20052;-84
2021/05/20 06:50:53;;;;;;;33.85;22.55;;;12.50;99.90;;;;;;4704325;30;20497;-84
2021/05/20 06:53:23;;;;;;;30.25;19.67;;;12.50;99.90;;;;;;4729595;30;20416;-84
2021/05/20 06:55:52;;;;;;;32.60;20.17;;;12.60;99.90;;;;;;4705807;30;20051;-84
2021/05/20 07:01:04;;;;;;;29.17;20.17;;;12.60;99.70;;;;;;4720007;30;20054;-83
2021/05/20 07:03:30;;;;;;;26.55;18.85;;;12.60;99.70;;;;;;4727248;30;20067;-84
2021/05/20 07:05:57;;;;;;;27.75;18.33;;;12.70;99.90;;;;;;4730360;30;20067;-81
2021/05/20 07:08:24;;;;;;;30.98;20.00;;;12.80;99.90;;;;;;4747448;30;20066;-80
2021/05/20 07:10:57;;;;;;;34.17;20.98;;;12.90;99.60;;;;;;4730782;30;20493;-82
2021/05/20 07:13:24;;;;;;;31.40;19.48;;;12.90;99.30;;;;;;4726239;30;20063;-82
2021/05/20 07:15:50;;;;;;;37.78;21.17;;;13.00;99.40;;;;;;4747712;30;20052;-83
2021/05/20 07:18:17;;;;;;;35.17;21.98;;;13.10;98.90;;;;;;4746214;30;20047;-82
2021/05/20 07:20:44;;;;;;;35.47;21.27;;;13.20;98.90;;;;;;4716879;30;20048;-82
2021/05/20 07:23:15;;;;;;;38.75;23.17;;;13.20;98.70;;;;;;4708337;30;20082;-82
2021/05/20 07:25:42;;;;;;;43.63;26.23;;;13.30;98.50;;;;;;4731689;30;20048;-83
2021/05/20 07:28:10;;;;;;;45.83;26.85;;;13.40;98.60;;;;;;4748104;30;20865;-83
2021/05/20 07:30:36;;;;;;;36.33;22.42;;;13.60;98.30;;;;;;4739727;30;20409;-83
2021/05/20 07:33:04;;;;;;;31.27;20.38;;;13.70;98.00;;;;;;4717653;30;20052;-86
2021/05/20 07:35:32;;;;;;;40.05;25.23;;;13.80;97.90;;;;;;4747461;30;20044;-82
2021/05/20 07:37:58;;;;;;;37.90;23.23;;;13.90;97.30;;;;;;4745946;30;20846;-83
2021/05/20 07:40:25;;;;;;;45.30;29.73;;;13.80;97.40;;;;;;4730691;30;20051;-83
2021/05/20 07:42:51;;;;;;;53.72;34.10;;;13.80;97.10;;;;;;4731889;30;20052;-81
2021/05/20 07:45:18;;;;;;;54.65;36.97;;;13.80;97.00;;;;;;4732355;30;20067;-82
2021/05/20 07:47:47;;;;;;;48.85;34.95;;;13.80;96.70;;;;;;4731537;30;20067;-83
2021/05/20 07:50:15;;;;;;;45.83;31.45;;;13.80;96.80;;;;;;4719407;30;20496;-82
2021/05/20 07:52:42;;;;;;;46.55;30.92;;;13.80;96.80;;;;;;4734857;30;20040;-82
2021/05/20 07:55:10;;;;;;;43.40;30.17;;;13.80;96.70;;;;;;4718867;30;20043;-82
2021/05/20 07:57:36;;;;;;;43.13;29.58;;;14.00;96.90;;;;;;4747464;30;20170;-81
2021/05/20 08:00:04;;;;;;;46.15;31.63;;;14.20;96.90;;;;;;4730199;30;20056;-83
2021/05/20 08:03:26;;;;;;;48.05;32.10;;;14.30;96.70;;;;;;4708699;30;20056;-83
2021/05/20 08:05:42;;;;;;;46.15;30.63;;;14.40;96.50;;;;;;4713466;30;20052;-84
2021/05/20 08:13:16;;;;;;;51.83;36.80;;;14.60;96.20;;;;;;4745354;30;20255;-83
2021/05/20 08:15:43;;;;;;;54.17;39.42;;;14.70;95.80;;;;;;4716442;30;20036;-83
2021/05/20 08:18:10;;;;;;;50.72;35.38;;;14.90;95.60;;;;;;4731265;30;20048;-83
2021/05/20 08:20:36;;;;;;;51.30;36.45;;;15.00;95.20;;;;;;4728480;30;20071;-83
2021/05/20 08:23:03;;;;;;;51.17;35.33;;;15.10;94.50;;;;;;4726602;30;20048;-83
2021/05/20 08:25:30;;;;;;;48.67;36.13;;;15.20;94.50;;;;;;4730794;30;20055;-83
2021/05/20 08:27:56;;;;;;;39.90;29.85;;;15.20;94.10;;;;;;4731355;30;20059;-82
2021/05/20 08:30:23;;;;;;;44.78;32.25;;;15.30;94.30;;;;;;4716596;30;20048;-82
2021/05/20 08:32:50;;;;;;;38.03;27.25;;;15.50;94.30;;;;;;4732998;30;20040;-83
2021/05/20 08:35:17;;;;;;;39.42;27.05;;;15.70;94.00;;;;;;4714976;30;20055;-83
2021/05/20 08:37:44;;;;;;;37.00;26.40;;;15.90;93.70;;;;;;4705841;30;20059;-83
2021/05/20 08:40:12;;;;;;;40.22;29.45;;;16.00;93.40;;;;;;4730983;30;20390;-83
2021/05/20 08:42:40;;;;;;;37.05;26.75;;;16.20;93.00;;;;;;4731816;30;20495;-83
2021/05/20 08:45:11;;;;;;;36.72;26.23;;;16.40;92.50;;;;;;4730351;30;20528;-81
2021/05/20 08:47:38;;;;;;;39.87;29.13;;;16.40;92.30;;;;;;4729201;30;20055;-83
2021/05/20 08:50:06;;;;;;;40.30;29.30;;;16.40;91.70;;;;;;4729589;30;20066;-84
2021/05/20 08:52:36;;;;;;;36.17;26.55;;;16.30;91.40;;;;;;4745548;30;20043;-85
2021/05/20 08:55:05;;;;;;;41.25;29.38;;;16.40;91.60;;;;;;4744447;30;20051;-86
2021/05/20 08:57:32;;;;;;;35.45;26.33;;;16.40;91.30;;;;;;4725536;30;20067;-85
2021/05/20 08:59:58;;;;;;;45.90;33.78;;;16.40;91.30;;;;;;4730996;30;20048;-84
2021/05/20 09:02:30;;;;;;;42.75;30.27;;;16.40;90.80;;;;;;4716676;30;20048;-86
2021/05/20 09:05:11;;;;;;;37.03;25.98;;;16.40;90.70;;;;;;4716417;30;20044;-83
2021/05/20 09:07:40;;;;;;;38.78;26.63;;;16.40;90.60;;;;;;4730317;30;20051;-80
2021/05/20 09:10:10;;;;;;;30.45;22.92;;;16.50;90.20;;;;;;4745316;30;20060;-82
2021/05/20 09:12:37;;;;;;;34.42;24.40;;;16.40;90.50;;;;;;4729693;30;20044;-82
2021/05/20 09:15:18;;;;;;;32.50;24.25;;;16.50;90.20;;;;;;4715372;30;20040;-82
2021/05/20 09:17:46;;;;;;;26.73;21.08;;;16.50;90.10;;;;;;4737296;30;20059;-81
2021/05/20 09:20:14;;;;;;;22.90;19.13;;;16.60;90.00;;;;;;4742431;30;20048;-82
2021/05/20 09:22:40;;;;;;;24.98;19.25;;;16.80;90.00;;;;;;4741275;30;20523;-83
2021/05/20 09:25:10;;;;;;;24.52;19.95;;;17.10;88.70;;;;;;4725023;30;20047;-83
2021/05/20 09:27:36;;;;;;;22.08;17.45;;;17.10;88.20;;;;;;4720240;30;20389;-82
2021/05/20 09:30:09;;;;;;;26.10;20.52;;;17.20;88.80;;;;;;4743663;30;20745;-82
2021/05/20 09:32:52;;;;;;;24.00;19.65;;;17.30;86.80;;;;;;4733077;30;20401;-83
2021/05/20 09:35:27;;;;;;;;;;;17.20;86.70;;;;;;4745030;30;20120;-84
2021/05/20 09:38:01;;;;;;;23.85;19.88;;;17.20;86.70;;;;;;4734816;30;19918;-85
2021/05/20 09:40:40;;;;;;;20.65;17.33;;;17.30;86.50;;;;;;4743386;30;20488;-85
2021/05/20 09:43:14;;;;;;;21.45;19.15;;;17.60;85.90;;;;;;4746400;30;20044;-84
2021/05/20 09:45:40;;;;;;;22.77;19.17;;;17.90;83.90;;;;;;4724756;30;20063;-83
2021/05/20 09:48:08;;;;;;;17.75;14.95;;;18.00;83.10;;;;;;4728283;30;20051;-83
2021/05/20 09:50:46;;;;;;;18.60;16.58;;;18.00;83.40;;;;;;4742432;30;20485;-83
2021/05/20 09:53:16;;;;;;;20.65;18.00;;;18.10;83.50;;;;;;4725559;30;20055;-86
2021/05/20 09:55:56;;;;;;;26.95;21.33;;;18.10;83.10;;;;;;4742879;30;20059;-86
2021/05/20 09:58:28;;;;;;;20.70;17.40;;;18.10;82.30;;;;;;4729903;30;20048;-84
2021/05/20 10:00:56;;;;;;;20.05;16.83;;;18.10;82.50;;;;;;4743663;30;20044;-84
2021/05/20 10:03:24;;;;;;;16.10;13.95;;;18.20;82.10;;;;;;4744688;30;20043;-83
2021/05/20 10:05:52;;;;;;;18.27;14.35;;;18.40;82.50;;;;;;4729173;30;20051;-83
2021/05/20 10:08:23;;;;;;;16.52;14.48;;;18.50;81.20;;;;;;4740722;30;20048;-83
2021/05/20 10:10:54;;;;;;;13.77;11.13;;;18.60;80.90;;;;;;4741718;30;20443;-84
2021/05/20 10:13:26;;;;;;;13.87;12.13;;;18.70;81.60;;;;;;4744461;30;20063;-83
2021/05/20 10:15:55;;;;;;;12.15;10.85;;;18.70;80.60;;;;;;4741253;30;20421;-83
2021/05/20 10:18:28;;;;;;;12.02;10.82;;;18.60;80.70;;;;;;4732194;30;20489;-83
2021/05/20 10:20:58;;;;;;;;;;;18.50;79.80;;;;;;4744185;30;20036;-83
2021/05/20 10:23:25;;;;;;;12.32;11.13;;;18.50;80.10;;;;;;4717460;30;19926;-83
2021/05/20 10:25:54;;;;;;;15.23;13.63;;;18.40;80.40;;;;;;4732089;30;20056;-83
2021/05/20 10:28:22;;;;;;;14.85;13.30;;;18.40;80.70;;;;;;4719694;30;20040;-83
2021/05/20 10:30:53;;;;;;;15.00;13.48;;;18.60;80.60;;;;;;4729111;30;20051;-83
2021/05/20 10:33:28;;;;;;;13.30;11.90;;;18.90;80.60;;;;;;4728745;30;20052;-84
2021/05/20 10:35:57;;;;;;;13.90;11.80;;;19.20;79.80;;;;;;4715647;30;20060;-83
2021/05/20 10:38:30;;;;;;;10.40;9.30;;;19.30;79.40;;;;;;4731932;30;20040;-83
2021/05/20 10:41:12;;;;;;;10.38;9.13;;;19.50;79.20;;;;;;4747156;30;20047;-83
2021/05/20 10:43:40;;;;;;;9.93;8.90;;;19.60;78.40;;;;;;4731328;30;20125;-83
2021/05/20 10:46:12;;;;;;;13.77;12.38;;;19.70;77.30;;;;;;4745297;30;20040;-84
2021/05/20 10:48:49;;;;;;;;;;;19.80;77.10;;;;;;4731583;30;20067;-83
2021/05/20 10:51:23;;;;;;;9.98;8.95;;;20.00;77.70;;;;;;4747191;30;19922;-83
2021/05/20 10:54:02;;;;;;;11.15;10.15;;;20.10;76.50;;;;;;4716015;30;20047;-84
2021/05/20 10:56:29;;;;;;;10.80;9.77;;;20.10;75.70;;;;;;4745283;30;20056;-83
2021/05/20 10:58:57;;;;;;;14.30;12.80;;;19.90;75.50;;;;;;4720067;30;20055;-84
2021/05/20 11:01:24;;;;;;;10.23;9.18;;;19.90;76.00;;;;;;4734902;30;20048;-84
2021/05/20 11:03:59;;;;;;;11.63;10.52;;;20.00;76.70;;;;;;4745830;30;20548;-83
2021/05/20 11:06:38;;;;;;;11.02;9.98;;;20.50;75.80;;;;;;4745191;30;20067;-84
2021/05/20 11:09:11;;;;;;;10.15;9.15;;;21.00;74.30;;;;;;4746899;30;20052;-84
2021/05/20 11:11:38;;;;;;;10.65;9.63;;;21.50;72.50;;;;;;4745307;30;20506;-84
2021/05/20 11:14:14;;;;;;;12.13;10.85;;;21.90;71.60;;;;;;4708147;30;20449;-84
2021/05/20 11:16:44;;;;;;;11.68;10.48;;;22.10;69.60;;;;;;4735855;30;20044;-85
2021/05/20 11:19:28;;;;;;;10.38;9.35;;;22.30;69.50;;;;;;4719229;30;20048;-85
2021/05/20 11:22:01;;;;;;;13.60;12.20;;;22.40;68.10;;;;;;4722924;30;20047;-85
2021/05/20 11:24:33;;;;;;;12.63;11.38;;;22.50;66.00;;;;;;4746534;30;20056;-84
2021/05/20 11:27:01;;;;;;;12.88;11.57;;;22.70;66.40;;;;;;4715345;30;20048;-84
2021/05/20 11:29:29;;;;;;;16.00;12.80;;;23.10;65.60;;;;;;4716244;30;20060;-85
2021/05/20 11:37:26;;;;;;;13.40;12.10;;;24.00;62.20;;;;;;4729064;30;20055;-83
2021/05/20 11:39:52;;;;;;;11.63;10.43;;;24.10;61.70;;;;;;4735481;30;20059;-83
2021/05/20 11:42:28;;;;;;;14.90;13.40;;;24.10;61.00;;;;;;4732651;30;20055;-83
2021/05/20 11:44:55;;;;;;;18.23;16.25;;;23.70;60.00;;;;;;4744980;30;20056;-83
2021/05/20 11:47:22;;;;;;;19.67;16.95;;;23.00;60.50;;;;;;4735192;30;20358;-85
2021/05/20 11:49:50;;;;;;;16.02;13.98;;;22.90;62.30;;;;;;4745587;30;20043;-83
2021/05/20 11:52:20;;;;;;;19.90;17.80;;;23.20;60.90;;;;;;4743718;30;20040;-85
2021/05/20 11:54:50;;;;;;;15.70;14.02;;;23.60;59.70;;;;;;4722383;30;20048;-85
2021/05/20 11:57:22;;;;;;;15.68;13.02;;;24.10;57.40;;;;;;4743235;30;20500;-85
2021/05/20 11:59:53;;;;;;;18.65;16.65;;;24.50;56.90;;;;;;4729385;30;20056;-85
2021/05/20 12:02:25;;;;;;;19.98;16.60;;;24.70;56.70;;;;;;4732114;30;20048;-85
2021/05/20 12:05:05;;;;;;;22.30;18.45;;;25.00;57.00;;;;;;4703913;30;20040;-84
2021/05/20 12:07:33;;;;;;;23.27;20.75;;;25.30;56.60;;;;;;4730169;30;20047;-85
2021/05/20 12:10:27;;;;;;;25.90;21.83;;;25.30;55.50;;;;;;4729711;30;20055;-85
2021/05/20 12:12:58;;;;;;;22.48;18.35;;;25.10;54.40;;;;;;4712366;30;20400;-85
2021/05/20 12:15:26;;;;;;;20.50;16.97;;;24.90;55.40;;;;;;4727140;30;20052;-85
2021/05/20 12:17:57;;;;;;;21.38;17.50;;;24.70;55.20;;;;;;4730024;30;20059;-85
2021/05/20 12:20:24;;;;;;;17.05;14.98;;;24.50;54.80;;;;;;4741952;30;20040;-85
2021/05/20 12:22:52;;;;;;;18.13;16.15;;;24.50;54.00;;;;;;4716502;30;20055;-85
2021/05/20 12:25:21;;;;;;;16.42;14.60;;;24.60;53.70;;;;;;4716147;30;20493;-85
2021/05/20 12:27:52;;;;;;;15.25;13.68;;;24.60;53.50;;;;;;4729867;30;20040;-85
2021/05/20 12:30:25;;;;;;;20.97;18.83;;;24.40;53.40;;;;;;4731976;30;20190;-85
2021/05/20 12:33:13;;;;;;;16.40;14.75;;;24.00;53.40;;;;;;4728096;30;20294;-85
2021/05/20 12:35:45;;;;;;;17.63;15.82;;;23.50;55.00;;;;;;4743655;30;20051;-85
2021/05/20 12:38:21;;;;;;;19.00;17.02;;;23.00;54.10;;;;;;4702936;30;20048;-85
2021/05/20 12:40:52;;;;;;;17.58;15.45;;;22.50;55.60;;;;;;4718869;30;20243;-85
2021/05/20 12:43:27;;;;;;;14.80;13.25;;;22.00;56.90;;;;;;4729313;30;20048;-85
2021/05/20 12:45:54;;;;;;;17.85;16.00;;;21.60;57.70;;;;;;4743383;30;20040;-85
2021/05/20 12:48:33;;;;;;;22.65;20.23;;;21.20;58.50;;;;;;4742868;30;20051;-85
2021/05/20 12:51:18;;;;;;;20.50;17.20;;;20.70;59.50;;;;;;4729241;30;20052;-84
2021/05/20 12:53:52;;;;;;;19.48;17.50;;;20.30;61.00;;;;;;4716132;30;20442;-85
2021/05/20 12:56:24;;;;;;;18.80;16.83;;;20.10;62.50;;;;;;4743737;30;20055;-84